sensor_id;sensor_type;location;lat;lon;timestamp;P1;durP1;ratioP1;P2;durP2;ratioP2
12385;SDS011;6257;57.634;18.310;2024-02-21T00:02:20;1.97;;;1.60;;
12385;SDS011;6257;57.634;18.310;2024-02-21T00:04:47;1.80;;;1.70;;
12385;SDS011;6257;57.634;18.310;2024-02-21T00:07:16;1.77;;;1.67;;
12385;SDS011;6257;57.634;18.310;2024-02-21T00:09:43;1.73;;;1.60;;
12385;SDS011;6257;57.634;18.310;2024-02-21T00:12:10;1.83;;;1.73;;
12385;SDS011;6257;57.634;18.310;2024-02-21T00:14:38;2.20;;;1.87;;
12385;SDS011;6257;57.634;18.310;2024-02-21T00:17:06;1.87;;;1.73;;
12385;SDS011;6257;57.634;18.310;2024-02-21T00:19:34;2.40;;;1.77;;
12385;SDS011;6257;57.634;18.310;2024-02-21T00:22:01;2.33;;;1.70;;
12385;SDS011;6257;57.634;18.310;2024-02-21T00:24:29;3.20;;;2.07;;
12385;SDS011;6257;57.634;18.310;2024-02-21T00:26:57;2.13;;;1.90;;
12385;SDS011;6257;57.634;18.310;2024-02-21T00:29:24;2.67;;;2.40;;
12385;SDS011;6257;57.634;18.310;2024-02-21T00:31:50;2.47;;;2.23;;
12385;SDS011;6257;57.634;18.310;2024-02-21T00:34:17;2.87;;;2.30;;
12385;SDS011;6257;57.634;18.310;2024-02-21T00:36:44;2.50;;;2.30;;
12385;SDS011;6257;57.634;18.310;2024-02-21T00:39:11;2.00;;;1.80;;
12385;SDS011;6257;57.634;18.310;2024-02-21T00:41:40;2.30;;;2.10;;
12385;SDS011;6257;57.634;18.310;2024-02-21T00:44:07;3.03;;;2.20;;
12385;SDS011;6257;57.634;18.310;2024-02-21T00:46:35;3.27;;;2.10;;
12385;SDS011;6257;57.634;18.310;2024-02-21T00:49:03;3.13;;;1.97;;
12385;SDS011;6257;57.634;18.310;2024-02-21T00:51:30;3.20;;;2.00;;
12385;SDS011;6257;57.634;18.310;2024-02-21T00:53:58;2.90;;;2.37;;
12385;SDS011;6257;57.634;18.310;2024-02-21T00:56:26;2.17;;;1.70;;
12385;SDS011;6257;57.634;18.310;2024-02-21T00:58:56;1.70;;;1.60;;
12385;SDS011;6257;57.634;18.310;2024-02-21T01:01:23;2.17;;;1.50;;
12385;SDS011;6257;57.634;18.310;2024-02-21T01:03:51;1.77;;;1.67;;
12385;SDS011;6257;57.634;18.310;2024-02-21T01:06:18;2.77;;;1.60;;
12385;SDS011;6257;57.634;18.310;2024-02-21T01:08:46;3.17;;;1.80;;
12385;SDS011;6257;57.634;18.310;2024-02-21T01:11:13;2.80;;;1.77;;
12385;SDS011;6257;57.634;18.310;2024-02-21T01:13:40;2.70;;;2.00;;
12385;SDS011;6257;57.634;18.310;2024-02-21T01:16:08;3.10;;;1.57;;
12385;SDS011;6257;57.634;18.310;2024-02-21T01:18:37;3.23;;;1.70;;
12385;SDS011;6257;57.634;18.310;2024-02-21T01:21:04;3.80;;;1.70;;
12385;SDS011;6257;57.634;18.310;2024-02-21T01:23:32;2.20;;;1.87;;
12385;SDS011;6257;57.634;18.310;2024-02-21T01:25:59;2.00;;;1.80;;
12385;SDS011;6257;57.634;18.310;2024-02-21T01:28:26;2.93;;;1.77;;
12385;SDS011;6257;57.634;18.310;2024-02-21T01:30:53;3.63;;;1.80;;
12385;SDS011;6257;57.634;18.310;2024-02-21T01:33:22;4.57;;;2.10;;
12385;SDS011;6257;57.634;18.310;2024-02-21T01:35:49;3.97;;;2.10;;
12385;SDS011;6257;57.634;18.310;2024-02-21T01:38:16;2.53;;;2.30;;
12385;SDS011;6257;57.634;18.310;2024-02-21T01:40:43;3.53;;;2.20;;
12385;SDS011;6257;57.634;18.310;2024-02-21T01:43:16;3.67;;;2.20;;
12385;SDS011;6257;57.634;18.310;2024-02-21T01:45:45;3.97;;;2.47;;
12385;SDS011;6257;57.634;18.310;2024-02-21T01:48:15;6.47;;;2.47;;
12385;SDS011;6257;57.634;18.310;2024-02-21T01:50:45;6.57;;;2.60;;
12385;SDS011;6257;57.634;18.310;2024-02-21T01:53:12;5.50;;;2.80;;
12385;SDS011;6257;57.634;18.310;2024-02-21T01:55:43;5.40;;;2.90;;
12385;SDS011;6257;57.634;18.310;2024-02-21T01:58:11;4.50;;;2.43;;
12385;SDS011;6257;57.634;18.310;2024-02-21T02:00:38;5.50;;;2.90;;
12385;SDS011;6257;57.634;18.310;2024-02-21T02:03:09;4.77;;;2.47;;
12385;SDS011;6257;57.634;18.310;2024-02-21T02:05:41;6.37;;;3.40;;
12385;SDS011;6257;57.634;18.310;2024-02-21T02:08:12;6.17;;;2.40;;
12385;SDS011;6257;57.634;18.310;2024-02-21T02:10:39;5.70;;;2.33;;
12385;SDS011;6257;57.634;18.310;2024-02-21T02:13:07;4.53;;;2.60;;
12385;SDS011;6257;57.634;18.310;2024-02-21T02:15:37;7.23;;;2.50;;
12385;SDS011;6257;57.634;18.310;2024-02-21T02:18:05;3.80;;;2.10;;
12385;SDS011;6257;57.634;18.310;2024-02-21T02:20:32;4.27;;;2.63;;
12385;SDS011;6257;57.634;18.310;2024-02-21T02:23:01;6.73;;;2.57;;
12385;SDS011;6257;57.634;18.310;2024-02-21T02:25:34;7.50;;;2.90;;
12385;SDS011;6257;57.634;18.310;2024-02-21T02:28:02;6.23;;;2.40;;
12385;SDS011;6257;57.634;18.310;2024-02-21T02:30:31;5.53;;;2.87;;
12385;SDS011;6257;57.634;18.310;2024-02-21T02:32:59;4.37;;;2.53;;
12385;SDS011;6257;57.634;18.310;2024-02-21T02:35:26;6.77;;;2.60;;
12385;SDS011;6257;57.634;18.310;2024-02-21T02:37:53;4.93;;;2.40;;
12385;SDS011;6257;57.634;18.310;2024-02-21T02:40:20;5.60;;;2.50;;
12385;SDS011;6257;57.634;18.310;2024-02-21T02:42:48;3.23;;;2.13;;
12385;SDS011;6257;57.634;18.310;2024-02-21T02:45:16;5.43;;;2.63;;
12385;SDS011;6257;57.634;18.310;2024-02-21T02:47:44;6.77;;;2.47;;
12385;SDS011;6257;57.634;18.310;2024-02-21T02:50:11;7.60;;;2.20;;
12385;SDS011;6257;57.634;18.310;2024-02-21T02:52:39;4.13;;;1.80;;
12385;SDS011;6257;57.634;18.310;2024-02-21T02:55:06;5.53;;;2.10;;
12385;SDS011;6257;57.634;18.310;2024-02-21T02:57:33;6.60;;;2.27;;
12385;SDS011;6257;57.634;18.310;2024-02-21T03:00:02;4.77;;;1.60;;
12385;SDS011;6257;57.634;18.310;2024-02-21T03:02:31;5.13;;;2.10;;
12385;SDS011;6257;57.634;18.310;2024-02-21T03:04:59;4.93;;;1.67;;
12385;SDS011;6257;57.634;18.310;2024-02-21T03:07:25;4.37;;;1.60;;
12385;SDS011;6257;57.634;18.310;2024-02-21T03:09:52;5.20;;;1.53;;
12385;SDS011;6257;57.634;18.310;2024-02-21T03:12:19;5.03;;;1.50;;
12385;SDS011;6257;57.634;18.310;2024-02-21T03:14:52;4.63;;;1.50;;
12385;SDS011;6257;57.634;18.310;2024-02-21T03:17:21;3.53;;;1.60;;
12385;SDS011;6257;57.634;18.310;2024-02-21T03:19:48;6.20;;;1.70;;
12385;SDS011;6257;57.634;18.310;2024-02-21T03:22:15;7.23;;;1.70;;
12385;SDS011;6257;57.634;18.310;2024-02-21T03:24:42;6.83;;;1.97;;
12385;SDS011;6257;57.634;18.310;2024-02-21T03:27:09;6.33;;;2.00;;
12385;SDS011;6257;57.634;18.310;2024-02-21T03:29:37;4.97;;;2.00;;
12385;SDS011;6257;57.634;18.310;2024-02-21T03:32:04;4.67;;;1.87;;
12385;SDS011;6257;57.634;18.310;2024-02-21T03:34:32;7.50;;;2.00;;
12385;SDS011;6257;57.634;18.310;2024-02-21T03:36:59;11.63;;;2.77;;
12385;SDS011;6257;57.634;18.310;2024-02-21T03:39:26;6.57;;;2.00;;
12385;SDS011;6257;57.634;18.310;2024-02-21T03:41:53;5.70;;;1.90;;
12385;SDS011;6257;57.634;18.310;2024-02-21T03:44:20;6.63;;;1.90;;
12385;SDS011;6257;57.634;18.310;2024-02-21T03:46:47;6.90;;;2.10;;
12385;SDS011;6257;57.634;18.310;2024-02-21T03:49:14;7.90;;;2.33;;
12385;SDS011;6257;57.634;18.310;2024-02-21T03:51:42;7.53;;;1.90;;
12385;SDS011;6257;57.634;18.310;2024-02-21T03:54:09;7.93;;;2.23;;
12385;SDS011;6257;57.634;18.310;2024-02-21T03:56:37;8.80;;;2.27;;
12385;SDS011;6257;57.634;18.310;2024-02-21T03:59:05;8.37;;;2.20;;
12385;SDS011;6257;57.634;18.310;2024-02-21T04:01:33;6.23;;;2.40;;
12385;SDS011;6257;57.634;18.310;2024-02-21T04:04:00;9.57;;;2.83;;
12385;SDS011;6257;57.634;18.310;2024-02-21T04:06:27;8.63;;;2.50;;
12385;SDS011;6257;57.634;18.310;2024-02-21T04:08:56;9.70;;;2.63;;
12385;SDS011;6257;57.634;18.310;2024-02-21T04:11:23;9.60;;;2.70;;
12385;SDS011;6257;57.634;18.310;2024-02-21T04:13:50;10.83;;;2.87;;
12385;SDS011;6257;57.634;18.310;2024-02-21T04:16:17;12.60;;;2.87;;
12385;SDS011;6257;57.634;18.310;2024-02-21T04:18:44;12.03;;;3.47;;
12385;SDS011;6257;57.634;18.310;2024-02-21T04:21:14;10.87;;;2.70;;
12385;SDS011;6257;57.634;18.310;2024-02-21T04:23:41;8.57;;;2.50;;
12385;SDS011;6257;57.634;18.310;2024-02-21T04:26:09;10.83;;;3.17;;
12385;SDS011;6257;57.634;18.310;2024-02-21T04:28:37;11.90;;;3.20;;
12385;SDS011;6257;57.634;18.310;2024-02-21T04:31:04;10.90;;;3.40;;
12385;SDS011;6257;57.634;18.310;2024-02-21T04:33:31;10.67;;;3.07;;
12385;SDS011;6257;57.634;18.310;2024-02-21T04:35:58;9.47;;;3.10;;
12385;SDS011;6257;57.634;18.310;2024-02-21T04:38:26;8.97;;;3.00;;
12385;SDS011;6257;57.634;18.310;2024-02-21T04:40:53;11.27;;;3.47;;
12385;SDS011;6257;57.634;18.310;2024-02-21T04:43:24;9.63;;;3.50;;
12385;SDS011;6257;57.634;18.310;2024-02-21T04:45:51;9.93;;;3.47;;
12385;SDS011;6257;57.634;18.310;2024-02-21T04:48:19;13.03;;;2.90;;
12385;SDS011;6257;57.634;18.310;2024-02-21T04:50:46;9.50;;;3.40;;
12385;SDS011;6257;57.634;18.310;2024-02-21T04:53:13;8.87;;;3.53;;
12385;SDS011;6257;57.634;18.310;2024-02-21T04:55:41;11.67;;;3.20;;
12385;SDS011;6257;57.634;18.310;2024-02-21T04:58:08;8.97;;;3.20;;
12385;SDS011;6257;57.634;18.310;2024-02-21T05:00:36;9.70;;;3.60;;
12385;SDS011;6257;57.634;18.310;2024-02-21T05:03:03;10.67;;;4.00;;
12385;SDS011;6257;57.634;18.310;2024-02-21T05:05:30;11.33;;;4.00;;
12385;SDS011;6257;57.634;18.310;2024-02-21T05:07:57;10.13;;;4.20;;
12385;SDS011;6257;57.634;18.310;2024-02-21T05:10:25;9.23;;;4.50;;
12385;SDS011;6257;57.634;18.310;2024-02-21T05:12:52;9.87;;;3.83;;
12385;SDS011;6257;57.634;18.310;2024-02-21T05:15:19;14.50;;;4.43;;
12385;SDS011;6257;57.634;18.310;2024-02-21T05:17:47;13.37;;;4.20;;
12385;SDS011;6257;57.634;18.310;2024-02-21T05:20:14;14.13;;;5.07;;
12385;SDS011;6257;57.634;18.310;2024-02-21T05:22:42;13.60;;;4.60;;
12385;SDS011;6257;57.634;18.310;2024-02-21T05:25:09;10.10;;;4.23;;
12385;SDS011;6257;57.634;18.310;2024-02-21T05:27:36;12.17;;;4.70;;
12385;SDS011;6257;57.634;18.310;2024-02-21T05:30:04;15.03;;;5.30;;
12385;SDS011;6257;57.634;18.310;2024-02-21T05:32:32;15.13;;;4.93;;
12385;SDS011;6257;57.634;18.310;2024-02-21T05:35:01;17.17;;;5.13;;
12385;SDS011;6257;57.634;18.310;2024-02-21T05:37:28;16.83;;;5.87;;
12385;SDS011;6257;57.634;18.310;2024-02-21T05:39:55;19.50;;;5.60;;
12385;SDS011;6257;57.634;18.310;2024-02-21T05:42:22;15.80;;;5.67;;
12385;SDS011;6257;57.634;18.310;2024-02-21T05:44:49;18.17;;;6.30;;
12385;SDS011;6257;57.634;18.310;2024-02-21T05:47:16;20.67;;;6.00;;
12385;SDS011;6257;57.634;18.310;2024-02-21T05:49:45;16.47;;;5.83;;
12385;SDS011;6257;57.634;18.310;2024-02-21T05:52:14;18.07;;;5.93;;
12385;SDS011;6257;57.634;18.310;2024-02-21T05:54:41;22.13;;;6.20;;
12385;SDS011;6257;57.634;18.310;2024-02-21T05:57:08;15.87;;;6.03;;
12385;SDS011;6257;57.634;18.310;2024-02-21T05:59:35;17.87;;;6.00;;
12385;SDS011;6257;57.634;18.310;2024-02-21T06:02:05;20.93;;;5.77;;
12385;SDS011;6257;57.634;18.310;2024-02-21T06:04:34;18.40;;;6.17;;
12385;SDS011;6257;57.634;18.310;2024-02-21T06:07:07;16.13;;;5.00;;
12385;SDS011;6257;57.634;18.310;2024-02-21T06:09:36;13.40;;;5.23;;
12385;SDS011;6257;57.634;18.310;2024-02-21T06:12:03;15.07;;;5.53;;
12385;SDS011;6257;57.634;18.310;2024-02-21T06:14:31;18.13;;;4.50;;
12385;SDS011;6257;57.634;18.310;2024-02-21T06:16:58;27.23;;;5.17;;
12385;SDS011;6257;57.634;18.310;2024-02-21T06:19:25;13.43;;;4.70;;
12385;SDS011;6257;57.634;18.310;2024-02-21T06:21:52;31.00;;;4.90;;
12385;SDS011;6257;57.634;18.310;2024-02-21T06:24:19;16.33;;;4.17;;
12385;SDS011;6257;57.634;18.310;2024-02-21T06:26:51;17.80;;;4.37;;
12385;SDS011;6257;57.634;18.310;2024-02-21T06:29:18;17.83;;;4.30;;
12385;SDS011;6257;57.634;18.310;2024-02-21T06:31:45;14.43;;;4.73;;
12385;SDS011;6257;57.634;18.310;2024-02-21T06:34:12;7.27;;;3.27;;
12385;SDS011;6257;57.634;18.310;2024-02-21T06:36:39;16.47;;;4.20;;
12385;SDS011;6257;57.634;18.310;2024-02-21T06:39:06;8.70;;;3.67;;
12385;SDS011;6257;57.634;18.310;2024-02-21T06:41:33;17.07;;;4.70;;
12385;SDS011;6257;57.634;18.310;2024-02-21T06:44:02;10.07;;;4.30;;
12385;SDS011;6257;57.634;18.310;2024-02-21T06:46:29;13.03;;;3.70;;
12385;SDS011;6257;57.634;18.310;2024-02-21T06:48:58;12.80;;;3.83;;
12385;SDS011;6257;57.634;18.310;2024-02-21T06:51:26;8.23;;;3.77;;
12385;SDS011;6257;57.634;18.310;2024-02-21T06:53:53;8.00;;;3.70;;
12385;SDS011;6257;57.634;18.310;2024-02-21T06:56:22;12.57;;;4.13;;
12385;SDS011;6257;57.634;18.310;2024-02-21T06:58:51;11.47;;;4.10;;
12385;SDS011;6257;57.634;18.310;2024-02-21T07:01:20;9.33;;;3.87;;
12385;SDS011;6257;57.634;18.310;2024-02-21T07:03:47;12.57;;;4.23;;
12385;SDS011;6257;57.634;18.310;2024-02-21T07:06:14;14.07;;;4.80;;
12385;SDS011;6257;57.634;18.310;2024-02-21T07:08:41;9.37;;;4.47;;
12385;SDS011;6257;57.634;18.310;2024-02-21T07:11:08;19.77;;;5.97;;
12385;SDS011;6257;57.634;18.310;2024-02-21T07:13:36;15.53;;;6.10;;
12385;SDS011;6257;57.634;18.310;2024-02-21T07:16:03;25.40;;;6.03;;
12385;SDS011;6257;57.634;18.310;2024-02-21T07:18:32;18.77;;;5.80;;
12385;SDS011;6257;57.634;18.310;2024-02-21T07:20:59;21.17;;;7.67;;
12385;SDS011;6257;57.634;18.310;2024-02-21T07:23:26;16.03;;;7.00;;
12385;SDS011;6257;57.634;18.310;2024-02-21T07:25:54;22.63;;;7.30;;
12385;SDS011;6257;57.634;18.310;2024-02-21T07:28:21;16.83;;;6.80;;
12385;SDS011;6257;57.634;18.310;2024-02-21T07:30:48;20.70;;;7.87;;
12385;SDS011;6257;57.634;18.310;2024-02-21T07:33:15;22.97;;;8.33;;
12385;SDS011;6257;57.634;18.310;2024-02-21T07:35:44;16.30;;;8.47;;
12385;SDS011;6257;57.634;18.310;2024-02-21T07:38:11;22.60;;;8.37;;
12385;SDS011;6257;57.634;18.310;2024-02-21T07:40:39;23.00;;;9.97;;
12385;SDS011;6257;57.634;18.310;2024-02-21T07:43:06;23.67;;;8.80;;
12385;SDS011;6257;57.634;18.310;2024-02-21T07:45:33;30.60;;;10.50;;
12385;SDS011;6257;57.634;18.310;2024-02-21T07:48:00;28.60;;;10.70;;
12385;SDS011;6257;57.634;18.310;2024-02-21T07:50:27;26.37;;;9.53;;
12385;SDS011;6257;57.634;18.310;2024-02-21T07:52:56;27.30;;;11.43;;
12385;SDS011;6257;57.634;18.310;2024-02-21T07:55:23;22.33;;;10.23;;
12385;SDS011;6257;57.634;18.310;2024-02-21T07:57:50;25.80;;;10.20;;
12385;SDS011;6257;57.634;18.310;2024-02-21T08:00:17;22.73;;;10.70;;
12385;SDS011;6257;57.634;18.310;2024-02-21T08:02:47;22.40;;;10.20;;
12385;SDS011;6257;57.634;18.310;2024-02-21T08:05:15;19.33;;;10.13;;
12385;SDS011;6257;57.634;18.310;2024-02-21T08:07:42;23.90;;;9.93;;
12385;SDS011;6257;57.634;18.310;2024-02-21T08:10:10;15.93;;;9.50;;
12385;SDS011;6257;57.634;18.310;2024-02-21T08:12:38;16.10;;;8.67;;
12385;SDS011;6257;57.634;18.310;2024-02-21T08:15:05;20.73;;;10.17;;
12385;SDS011;6257;57.634;18.310;2024-02-21T08:17:35;20.47;;;9.30;;
12385;SDS011;6257;57.634;18.310;2024-02-21T08:20:03;17.27;;;9.00;;
12385;SDS011;6257;57.634;18.310;2024-02-21T08:22:30;21.07;;;9.83;;
12385;SDS011;6257;57.634;18.310;2024-02-21T08:24:57;23.50;;;9.37;;
12385;SDS011;6257;57.634;18.310;2024-02-21T08:27:26;18.33;;;9.23;;
12385;SDS011;6257;57.634;18.310;2024-02-21T08:29:53;18.83;;;8.00;;
12385;SDS011;6257;57.634;18.310;2024-02-21T08:32:20;20.73;;;9.80;;
12385;SDS011;6257;57.634;18.310;2024-02-21T08:34:47;24.47;;;10.20;;
12385;SDS011;6257;57.634;18.310;2024-02-21T08:37:14;23.40;;;10.67;;
12385;SDS011;6257;57.634;18.310;2024-02-21T08:39:41;21.70;;;8.70;;
12385;SDS011;6257;57.634;18.310;2024-02-21T08:42:08;28.87;;;11.27;;
12385;SDS011;6257;57.634;18.310;2024-02-21T08:44:36;25.20;;;10.33;;
12385;SDS011;6257;57.634;18.310;2024-02-21T08:47:06;23.60;;;10.60;;
12385;SDS011;6257;57.634;18.310;2024-02-21T08:49:35;25.90;;;10.53;;
12385;SDS011;6257;57.634;18.310;2024-02-21T08:52:02;23.40;;;9.23;;
12385;SDS011;6257;57.634;18.310;2024-02-21T08:54:30;22.97;;;9.63;;
12385;SDS011;6257;57.634;18.310;2024-02-21T08:56:57;23.50;;;9.70;;
12385;SDS011;6257;57.634;18.310;2024-02-21T08:59:24;21.53;;;9.87;;
12385;SDS011;6257;57.634;18.310;2024-02-21T09:01:53;27.87;;;10.63;;
12385;SDS011;6257;57.634;18.310;2024-02-21T09:04:20;26.53;;;10.97;;
12385;SDS011;6257;57.634;18.310;2024-02-21T09:06:47;27.43;;;11.03;;
12385;SDS011;6257;57.634;18.310;2024-02-21T09:09:14;26.30;;;11.40;;
12385;SDS011;6257;57.634;18.310;2024-02-21T09:11:42;31.07;;;11.73;;
12385;SDS011;6257;57.634;18.310;2024-02-21T09:14:09;34.47;;;12.97;;
12385;SDS011;6257;57.634;18.310;2024-02-21T09:16:37;43.47;;;13.57;;
12385;SDS011;6257;57.634;18.310;2024-02-21T09:19:05;35.60;;;12.93;;
12385;SDS011;6257;57.634;18.310;2024-02-21T09:21:35;38.77;;;13.67;;
12385;SDS011;6257;57.634;18.310;2024-02-21T09:24:03;50.37;;;14.73;;
12385;SDS011;6257;57.634;18.310;2024-02-21T09:26:30;45.70;;;14.13;;
12385;SDS011;6257;57.634;18.310;2024-02-21T09:28:57;41.73;;;14.20;;
12385;SDS011;6257;57.634;18.310;2024-02-21T09:31:24;50.80;;;15.43;;
12385;SDS011;6257;57.634;18.310;2024-02-21T09:33:51;43.40;;;14.17;;
12385;SDS011;6257;57.634;18.310;2024-02-21T09:36:20;47.97;;;15.23;;
12385;SDS011;6257;57.634;18.310;2024-02-21T09:38:47;40.97;;;14.27;;
12385;SDS011;6257;57.634;18.310;2024-02-21T09:41:15;41.93;;;14.20;;
12385;SDS011;6257;57.634;18.310;2024-02-21T09:43:43;40.97;;;14.53;;
12385;SDS011;6257;57.634;18.310;2024-02-21T09:46:13;35.87;;;13.50;;
12385;SDS011;6257;57.634;18.310;2024-02-21T09:48:48;33.97;;;12.60;;
12385;SDS011;6257;57.634;18.310;2024-02-21T09:51:28;45.33;;;14.43;;
12385;SDS011;6257;57.634;18.310;2024-02-21T09:53:56;51.40;;;16.27;;
12385;SDS011;6257;57.634;18.310;2024-02-21T09:56:23;49.67;;;15.40;;
12385;SDS011;6257;57.634;18.310;2024-02-21T09:58:50;62.47;;;16.73;;
12385;SDS011;6257;57.634;18.310;2024-02-21T10:01:18;60.70;;;15.77;;
12385;SDS011;6257;57.634;18.310;2024-02-21T10:03:45;38.93;;;13.23;;
12385;SDS011;6257;57.634;18.310;2024-02-21T10:06:13;47.33;;;14.87;;
12385;SDS011;6257;57.634;18.310;2024-02-21T10:08:41;42.40;;;13.93;;
12385;SDS011;6257;57.634;18.310;2024-02-21T10:11:08;41.23;;;12.20;;
12385;SDS011;6257;57.634;18.310;2024-02-21T10:13:35;42.70;;;14.07;;
12385;SDS011;6257;57.634;18.310;2024-02-21T10:16:03;42.23;;;14.03;;
12385;SDS011;6257;57.634;18.310;2024-02-21T10:18:31;31.63;;;12.47;;
12385;SDS011;6257;57.634;18.310;2024-02-21T10:20:59;33.43;;;13.07;;
12385;SDS011;6257;57.634;18.310;2024-02-21T10:23:41;37.00;;;13.07;;
12385;SDS011;6257;57.634;18.310;2024-02-21T10:26:09;33.90;;;12.63;;
12385;SDS011;6257;57.634;18.310;2024-02-21T10:28:36;30.53;;;12.90;;
12385;SDS011;6257;57.634;18.310;2024-02-21T10:31:07;25.77;;;11.43;;
12385;SDS011;6257;57.634;18.310;2024-02-21T10:33:35;24.07;;;11.30;;
12385;SDS011;6257;57.634;18.310;2024-02-21T10:36:07;19.27;;;8.20;;
12385;SDS011;6257;57.634;18.310;2024-02-21T10:38:36;18.83;;;9.50;;
12385;SDS011;6257;57.634;18.310;2024-02-21T10:41:05;17.77;;;8.10;;
12385;SDS011;6257;57.634;18.310;2024-02-21T10:43:35;17.10;;;9.00;;
12385;SDS011;6257;57.634;18.310;2024-02-21T10:46:06;17.53;;;9.10;;
12385;SDS011;6257;57.634;18.310;2024-02-21T10:48:38;12.93;;;7.00;;
12385;SDS011;6257;57.634;18.310;2024-02-21T10:51:13;16.67;;;8.27;;
12385;SDS011;6257;57.634;18.310;2024-02-21T10:53:44;18.00;;;8.77;;
12385;SDS011;6257;57.634;18.310;2024-02-21T10:56:25;18.63;;;8.77;;
12385;SDS011;6257;57.634;18.310;2024-02-21T10:58:54;19.17;;;8.50;;
12385;SDS011;6257;57.634;18.310;2024-02-21T11:01:23;17.33;;;8.00;;
12385;SDS011;6257;57.634;18.310;2024-02-21T11:03:52;15.00;;;8.00;;
12385;SDS011;6257;57.634;18.310;2024-02-21T11:06:23;15.57;;;7.90;;
12385;SDS011;6257;57.634;18.310;2024-02-21T11:09:01;16.43;;;8.20;;
12385;SDS011;6257;57.634;18.310;2024-02-21T11:11:30;15.77;;;7.37;;
12385;SDS011;6257;57.634;18.310;2024-02-21T11:14:03;14.17;;;8.03;;
12385;SDS011;6257;57.634;18.310;2024-02-21T11:16:34;13.60;;;6.47;;
12385;SDS011;6257;57.634;18.310;2024-02-21T11:19:06;12.10;;;7.47;;
12385;SDS011;6257;57.634;18.310;2024-02-21T11:21:34;20.17;;;8.07;;
12385;SDS011;6257;57.634;18.310;2024-02-21T11:24:02;15.40;;;7.07;;
12385;SDS011;6257;57.634;18.310;2024-02-21T11:26:32;14.27;;;7.40;;
12385;SDS011;6257;57.634;18.310;2024-02-21T11:29:00;13.77;;;7.23;;
12385;SDS011;6257;57.634;18.310;2024-02-21T11:31:37;15.67;;;6.90;;
12385;SDS011;6257;57.634;18.310;2024-02-21T11:34:08;14.77;;;7.03;;
12385;SDS011;6257;57.634;18.310;2024-02-21T11:36:35;13.00;;;7.07;;
12385;SDS011;6257;57.634;18.310;2024-02-21T11:39:03;12.57;;;6.60;;
12385;SDS011;6257;57.634;18.310;2024-02-21T11:41:32;11.30;;;6.50;;
12385;SDS011;6257;57.634;18.310;2024-02-21T11:44:00;10.67;;;6.20;;
12385;SDS011;6257;57.634;18.310;2024-02-21T11:46:27;15.43;;;6.77;;
12385;SDS011;6257;57.634;18.310;2024-02-21T11:48:54;13.43;;;6.53;;
12385;SDS011;6257;57.634;18.310;2024-02-21T11:51:25;12.33;;;6.43;;
12385;SDS011;6257;57.634;18.310;2024-02-21T11:53:52;13.97;;;6.90;;
12385;SDS011;6257;57.634;18.310;2024-02-21T11:56:19;9.60;;;6.27;;
12385;SDS011;6257;57.634;18.310;2024-02-21T11:58:49;11.30;;;6.40;;
12385;SDS011;6257;57.634;18.310;2024-02-21T12:01:16;10.20;;;6.43;;
12385;SDS011;6257;57.634;18.310;2024-02-21T12:03:43;11.77;;;6.90;;
12385;SDS011;6257;57.634;18.310;2024-02-21T12:06:15;11.57;;;6.90;;
12385;SDS011;6257;57.634;18.310;2024-02-21T12:08:45;12.57;;;7.13;;
12385;SDS011;6257;57.634;18.310;2024-02-21T12:11:16;12.77;;;6.90;;
12385;SDS011;6257;57.634;18.310;2024-02-21T12:13:57;10.93;;;7.20;;
12385;SDS011;6257;57.634;18.310;2024-02-21T12:16:26;12.03;;;7.93;;
12385;SDS011;6257;57.634;18.310;2024-02-21T12:18:54;12.13;;;7.73;;
12385;SDS011;6257;57.634;18.310;2024-02-21T12:21:25;11.37;;;6.87;;
12385;SDS011;6257;57.634;18.310;2024-02-21T12:23:53;10.47;;;7.63;;
12385;SDS011;6257;57.634;18.310;2024-02-21T12:26:21;11.53;;;7.67;;
12385;SDS011;6257;57.634;18.310;2024-02-21T12:28:49;10.40;;;7.60;;
12385;SDS011;6257;57.634;18.310;2024-02-21T12:31:16;10.07;;;7.87;;
12385;SDS011;6257;57.634;18.310;2024-02-21T12:33:43;12.30;;;7.63;;
12385;SDS011;6257;57.634;18.310;2024-02-21T12:36:10;10.57;;;8.23;;
12385;SDS011;6257;57.634;18.310;2024-02-21T12:38:37;10.30;;;7.47;;
12385;SDS011;6257;57.634;18.310;2024-02-21T12:41:04;10.03;;;7.90;;
12385;SDS011;6257;57.634;18.310;2024-02-21T12:43:32;8.90;;;7.10;;
12385;SDS011;6257;57.634;18.310;2024-02-21T12:46:00;10.37;;;7.40;;
12385;SDS011;6257;57.634;18.310;2024-02-21T12:48:28;9.37;;;6.17;;
12385;SDS011;6257;57.634;18.310;2024-02-21T12:50:55;8.07;;;6.27;;
12385;SDS011;6257;57.634;18.310;2024-02-21T12:53:22;8.47;;;7.20;;
12385;SDS011;6257;57.634;18.310;2024-02-21T12:55:49;12.33;;;6.97;;
12385;SDS011;6257;57.634;18.310;2024-02-21T12:58:16;9.37;;;7.00;;
12385;SDS011;6257;57.634;18.310;2024-02-21T13:00:43;8.70;;;7.27;;
12385;SDS011;6257;57.634;18.310;2024-02-21T13:03:12;10.53;;;7.40;;
12385;SDS011;6257;57.634;18.310;2024-02-21T13:05:39;12.57;;;7.90;;
12385;SDS011;6257;57.634;18.310;2024-02-21T13:08:06;10.93;;;7.70;;
12385;SDS011;6257;57.634;18.310;2024-02-21T13:10:34;11.90;;;7.70;;
12385;SDS011;6257;57.634;18.310;2024-02-21T13:13:02;8.93;;;6.83;;
12385;SDS011;6257;57.634;18.310;2024-02-21T13:15:29;11.80;;;7.07;;
12385;SDS011;6257;57.634;18.310;2024-02-21T13:17:56;9.83;;;6.73;;
12385;SDS011;6257;57.634;18.310;2024-02-21T13:20:25;12.87;;;7.27;;
12385;SDS011;6257;57.634;18.310;2024-02-21T13:22:53;10.60;;;7.60;;
12385;SDS011;6257;57.634;18.310;2024-02-21T13:25:20;10.93;;;7.17;;
12385;SDS011;6257;57.634;18.310;2024-02-21T13:27:47;11.70;;;7.90;;
12385;SDS011;6257;57.634;18.310;2024-02-21T13:30:14;12.03;;;7.43;;
12385;SDS011;6257;57.634;18.310;2024-02-21T13:32:42;12.07;;;7.67;;
12385;SDS011;6257;57.634;18.310;2024-02-21T13:35:11;11.37;;;8.00;;
12385;SDS011;6257;57.634;18.310;2024-02-21T13:37:40;13.70;;;8.13;;
12385;SDS011;6257;57.634;18.310;2024-02-21T13:40:08;12.20;;;7.03;;
12385;SDS011;6257;57.634;18.310;2024-02-21T13:42:35;10.80;;;7.20;;
12385;SDS011;6257;57.634;18.310;2024-02-21T13:45:03;10.07;;;6.97;;
12385;SDS011;6257;57.634;18.310;2024-02-21T13:47:31;11.13;;;6.87;;
12385;SDS011;6257;57.634;18.310;2024-02-21T13:49:58;10.03;;;6.63;;
12385;SDS011;6257;57.634;18.310;2024-02-21T13:52:25;12.50;;;7.17;;
12385;SDS011;6257;57.634;18.310;2024-02-21T13:54:54;9.93;;;7.20;;
12385;SDS011;6257;57.634;18.310;2024-02-21T13:57:21;9.10;;;7.00;;
12385;SDS011;6257;57.634;18.310;2024-02-21T13:59:48;8.87;;;6.97;;
12385;SDS011;6257;57.634;18.310;2024-02-21T14:02:16;9.60;;;6.73;;
12385;SDS011;6257;57.634;18.310;2024-02-21T14:04:43;9.77;;;6.90;;
12385;SDS011;6257;57.634;18.310;2024-02-21T14:07:09;8.43;;;6.23;;
12385;SDS011;6257;57.634;18.310;2024-02-21T14:09:36;9.40;;;6.80;;
12385;SDS011;6257;57.634;18.310;2024-02-21T14:12:05;8.73;;;7.23;;
12385;SDS011;6257;57.634;18.310;2024-02-21T14:14:34;8.40;;;6.60;;
12385;SDS011;6257;57.634;18.310;2024-02-21T14:17:01;9.47;;;7.37;;
12385;SDS011;6257;57.634;18.310;2024-02-21T14:19:28;9.10;;;7.23;;
12385;SDS011;6257;57.634;18.310;2024-02-21T14:21:56;8.77;;;7.30;;
12385;SDS011;6257;57.634;18.310;2024-02-21T14:24:23;10.67;;;7.23;;
12385;SDS011;6257;57.634;18.310;2024-02-21T14:26:50;10.00;;;6.60;;
12385;SDS011;6257;57.634;18.310;2024-02-21T14:29:18;10.83;;;7.70;;
12385;SDS011;6257;57.634;18.310;2024-02-21T14:31:46;11.57;;;7.87;;
12385;SDS011;6257;57.634;18.310;2024-02-21T14:34:13;12.43;;;8.07;;
12385;SDS011;6257;57.634;18.310;2024-02-21T14:36:40;12.33;;;7.97;;
12385;SDS011;6257;57.634;18.310;2024-02-21T14:41:42;17.17;;;9.10;;
12385;SDS011;6257;57.634;18.310;2024-02-21T14:44:09;14.27;;;9.17;;
12385;SDS011;6257;57.634;18.310;2024-02-21T14:46:38;14.13;;;9.30;;